sensor_id;sensor_type;location;lat;lon;timestamp;P1;durP1;ratioP1;P2;durP2;ratioP2
50056;SDS011;36875;49.468;11.200;2023-04-21T00:00:52;6.00;;;3.00;;
50056;SDS011;36875;49.468;11.200;2023-04-21T00:03:18;7.60;;;3.00;;
50056;SDS011;36875;49.468;11.200;2023-04-21T00:05:46;5.22;;;3.33;;
50056;SDS011;36875;49.468;11.200;2023-04-21T00:08:13;4.15;;;2.88;;
50056;SDS011;36875;49.468;11.200;2023-04-21T00:10:39;5.55;;;2.90;;
50056;SDS011;36875;49.468;11.200;2023-04-21T00:13:05;4.93;;;3.10;;
50056;SDS011;36875;49.468;11.200;2023-04-21T00:15:30;3.78;;;2.60;;
50056;SDS011;36875;49.468;11.200;2023-04-21T00:17:56;5.75;;;3.38;;
50056;SDS011;36875;49.468;11.200;2023-04-21T00:20:23;5.28;;;3.22;;
50056;SDS011;36875;49.468;11.200;2023-04-21T00:22:50;4.93;;;3.08;;
50056;SDS011;36875;49.468;11.200;2023-04-21T00:25:18;4.93;;;3.22;;
50056;SDS011;36875;49.468;11.200;2023-04-21T00:27:43;4.90;;;2.90;;
50056;SDS011;36875;49.468;11.200;2023-04-21T00:30:09;4.53;;;2.83;;
50056;SDS011;36875;49.468;11.200;2023-04-21T00:32:35;5.55;;;3.28;;
50056;SDS011;36875;49.468;11.200;2023-04-21T00:35:01;5.68;;;3.00;;
50056;SDS011;36875;49.468;11.200;2023-04-21T00:37:27;4.18;;;2.65;;
50056;SDS011;36875;49.468;11.200;2023-04-21T00:39:52;5.38;;;3.20;;
50056;SDS011;36875;49.468;11.200;2023-04-21T00:42:19;5.03;;;3.15;;
50056;SDS011;36875;49.468;11.200;2023-04-21T00:44:45;4.72;;;2.85;;
50056;SDS011;36875;49.468;11.200;2023-04-21T00:47:10;5.55;;;3.22;;
50056;SDS011;36875;49.468;11.200;2023-04-21T00:49:36;5.03;;;3.38;;
50056;SDS011;36875;49.468;11.200;2023-04-21T00:52:02;5.97;;;3.20;;
50056;SDS011;36875;49.468;11.200;2023-04-21T00:54:28;5.03;;;2.83;;
50056;SDS011;36875;49.468;11.200;2023-04-21T00:56:54;5.97;;;3.28;;
50056;SDS011;36875;49.468;11.200;2023-04-21T00:59:23;4.43;;;2.67;;
50056;SDS011;36875;49.468;11.200;2023-04-21T01:01:49;4.55;;;3.00;;
50056;SDS011;36875;49.468;11.200;2023-04-21T01:04:16;7.57;;;3.10;;
50056;SDS011;36875;49.468;11.200;2023-04-21T01:06:42;6.32;;;3.15;;
50056;SDS011;36875;49.468;11.200;2023-04-21T01:09:08;6.18;;;3.22;;
50056;SDS011;36875;49.468;11.200;2023-04-21T01:11:36;4.57;;;2.90;;
50056;SDS011;36875;49.468;11.200;2023-04-21T01:14:02;4.97;;;2.92;;
50056;SDS011;36875;49.468;11.200;2023-04-21T01:16:30;5.53;;;2.97;;
50056;SDS011;36875;49.468;11.200;2023-04-21T01:18:59;5.32;;;3.30;;
50056;SDS011;36875;49.468;11.200;2023-04-21T01:21:25;6.18;;;3.28;;
50056;SDS011;36875;49.468;11.200;2023-04-21T01:23:54;4.50;;;3.20;;
50056;SDS011;36875;49.468;11.200;2023-04-21T01:26:19;4.63;;;3.22;;
50056;SDS011;36875;49.468;11.200;2023-04-21T01:28:47;4.22;;;2.63;;
50056;SDS011;36875;49.468;11.200;2023-04-21T01:31:13;4.80;;;3.05;;
50056;SDS011;36875;49.468;11.200;2023-04-21T01:33:39;6.13;;;3.30;;
50056;SDS011;36875;49.468;11.200;2023-04-21T01:36:05;4.65;;;2.97;;
50056;SDS011;36875;49.468;11.200;2023-04-21T01:38:31;3.80;;;2.42;;
50056;SDS011;36875;49.468;11.200;2023-04-21T01:40:58;4.55;;;2.70;;
50056;SDS011;36875;49.468;11.200;2023-04-21T01:43:23;4.72;;;2.75;;
50056;SDS011;36875;49.468;11.200;2023-04-21T01:45:50;4.82;;;3.10;;
50056;SDS011;36875;49.468;11.200;2023-04-21T01:48:16;4.85;;;3.10;;
50056;SDS011;36875;49.468;11.200;2023-04-21T01:50:42;4.80;;;3.25;;
50056;SDS011;36875;49.468;11.200;2023-04-21T01:53:07;5.13;;;3.40;;
50056;SDS011;36875;49.468;11.200;2023-04-21T01:55:33;3.78;;;2.72;;
50056;SDS011;36875;49.468;11.200;2023-04-21T01:57:59;4.00;;;3.00;;
50056;SDS011;36875;49.468;11.200;2023-04-21T02:00:25;4.45;;;2.92;;
50056;SDS011;36875;49.468;11.200;2023-04-21T02:02:51;4.45;;;2.90;;
50056;SDS011;36875;49.468;11.200;2023-04-21T02:05:17;5.00;;;3.50;;
50056;SDS011;36875;49.468;11.200;2023-04-21T02:07:42;4.40;;;2.97;;
50056;SDS011;36875;49.468;11.200;2023-04-21T02:10:08;4.72;;;2.50;;
50056;SDS011;36875;49.468;11.200;2023-04-21T02:12:34;3.92;;;2.85;;
50056;SDS011;36875;49.468;11.200;2023-04-21T02:15:01;3.83;;;2.75;;
50056;SDS011;36875;49.468;11.200;2023-04-21T02:17:27;6.05;;;2.83;;
50056;SDS011;36875;49.468;11.200;2023-04-21T02:19:52;6.10;;;3.80;;
50056;SDS011;36875;49.468;11.200;2023-04-21T02:22:18;5.60;;;3.22;;
50056;SDS011;36875;49.468;11.200;2023-04-21T02:24:43;5.15;;;2.95;;
50056;SDS011;36875;49.468;11.200;2023-04-21T02:27:09;5.03;;;2.83;;
50056;SDS011;36875;49.468;11.200;2023-04-21T02:29:34;4.47;;;2.90;;
50056;SDS011;36875;49.468;11.200;2023-04-21T02:32:04;4.50;;;2.80;;
50056;SDS011;36875;49.468;11.200;2023-04-21T02:34:29;4.35;;;2.80;;
50056;SDS011;36875;49.468;11.200;2023-04-21T02:36:55;3.90;;;2.70;;
50056;SDS011;36875;49.468;11.200;2023-04-21T02:39:20;4.50;;;2.72;;
50056;SDS011;36875;49.468;11.200;2023-04-21T02:41:46;4.00;;;2.83;;
50056;SDS011;36875;49.468;11.200;2023-04-21T02:44:14;4.80;;;2.88;;
50056;SDS011;36875;49.468;11.200;2023-04-21T02:46:40;3.95;;;2.83;;
50056;SDS011;36875;49.468;11.200;2023-04-21T02:49:07;4.10;;;2.80;;
50056;SDS011;36875;49.468;11.200;2023-04-21T02:51:32;4.75;;;2.90;;
50056;SDS011;36875;49.468;11.200;2023-04-21T02:53:58;4.90;;;2.88;;
50056;SDS011;36875;49.468;11.200;2023-04-21T02:56:24;3.92;;;2.80;;
50056;SDS011;36875;49.468;11.200;2023-04-21T02:58:50;4.43;;;2.90;;
50056;SDS011;36875;49.468;11.200;2023-04-21T03:01:15;4.53;;;2.92;;
50056;SDS011;36875;49.468;11.200;2023-04-21T03:03:41;3.50;;;2.58;;
50056;SDS011;36875;49.468;11.200;2023-04-21T03:06:07;4.28;;;2.75;;
50056;SDS011;36875;49.468;11.200;2023-04-21T03:08:33;4.93;;;3.08;;
50056;SDS011;36875;49.468;11.200;2023-04-21T03:10:59;5.60;;;3.10;;
50056;SDS011;36875;49.468;11.200;2023-04-21T03:13:24;4.13;;;2.83;;
50056;SDS011;36875;49.468;11.200;2023-04-21T03:15:50;3.92;;;2.72;;
50056;SDS011;36875;49.468;11.200;2023-04-21T03:18:16;5.00;;;2.60;;
50056;SDS011;36875;49.468;11.200;2023-04-21T03:20:42;3.65;;;2.70;;
50056;SDS011;36875;49.468;11.200;2023-04-21T03:23:09;4.38;;;2.88;;
50056;SDS011;36875;49.468;11.200;2023-04-21T03:25:34;4.68;;;3.05;;
50056;SDS011;36875;49.468;11.200;2023-04-21T03:28:02;4.03;;;2.67;;
50056;SDS011;36875;49.468;11.200;2023-04-21T03:30:27;4.25;;;2.90;;
50056;SDS011;36875;49.468;11.200;2023-04-21T03:32:53;5.28;;;2.85;;
50056;SDS011;36875;49.468;11.200;2023-04-21T03:35:22;5.55;;;2.97;;
50056;SDS011;36875;49.468;11.200;2023-04-21T03:37:48;3.90;;;2.80;;
50056;SDS011;36875;49.468;11.200;2023-04-21T03:40:15;4.50;;;2.80;;
50056;SDS011;36875;49.468;11.200;2023-04-21T03:42:40;4.82;;;2.97;;
50056;SDS011;36875;49.468;11.200;2023-04-21T03:45:07;3.60;;;2.72;;
50056;SDS011;36875;49.468;11.200;2023-04-21T03:47:33;4.78;;;2.97;;
50056;SDS011;36875;49.468;11.200;2023-04-21T03:49:59;4.93;;;3.10;;
50056;SDS011;36875;49.468;11.200;2023-04-21T03:52:25;5.15;;;3.10;;
50056;SDS011;36875;49.468;11.200;2023-04-21T03:54:51;3.90;;;2.90;;
50056;SDS011;36875;49.468;11.200;2023-04-21T03:57:17;3.78;;;2.90;;
50056;SDS011;36875;49.468;11.200;2023-04-21T03:59:43;5.35;;;2.90;;
50056;SDS011;36875;49.468;11.200;2023-04-21T04:02:08;4.60;;;3.15;;
50056;SDS011;36875;49.468;11.200;2023-04-21T04:04:34;4.38;;;2.83;;
50056;SDS011;36875;49.468;11.200;2023-04-21T04:07:00;3.50;;;2.50;;
50056;SDS011;36875;49.468;11.200;2023-04-21T04:09:26;3.58;;;2.63;;
50056;SDS011;36875;49.468;11.200;2023-04-21T04:11:51;4.50;;;2.80;;
50056;SDS011;36875;49.468;11.200;2023-04-21T04:14:18;3.58;;;2.63;;
50056;SDS011;36875;49.468;11.200;2023-04-21T04:16:44;3.47;;;2.55;;
50056;SDS011;36875;49.468;11.200;2023-04-21T04:19:09;5.55;;;3.15;;
50056;SDS011;36875;49.468;11.200;2023-04-21T04:21:35;4.22;;;2.90;;
50056;SDS011;36875;49.468;11.200;2023-04-21T04:24:01;5.28;;;3.22;;
50056;SDS011;36875;49.468;11.200;2023-04-21T04:26:27;4.53;;;3.03;;
50056;SDS011;36875;49.468;11.200;2023-04-21T04:28:53;4.20;;;2.72;;
50056;SDS011;36875;49.468;11.200;2023-04-21T04:31:23;4.20;;;2.90;;
50056;SDS011;36875;49.468;11.200;2023-04-21T04:33:49;4.38;;;2.70;;
50056;SDS011;36875;49.468;11.200;2023-04-21T04:36:14;4.72;;;2.90;;
50056;SDS011;36875;49.468;11.200;2023-04-21T04:38:40;4.18;;;2.85;;
50056;SDS011;36875;49.468;11.200;2023-04-21T04:41:05;4.25;;;2.78;;
50056;SDS011;36875;49.468;11.200;2023-04-21T04:43:33;4.97;;;3.00;;
50056;SDS011;36875;49.468;11.200;2023-04-21T04:46:00;4.07;;;2.90;;
50056;SDS011;36875;49.468;11.200;2023-04-21T04:48:28;3.95;;;2.80;;
50056;SDS011;36875;49.468;11.200;2023-04-21T04:50:53;4.13;;;2.55;;
50056;SDS011;36875;49.468;11.200;2023-04-21T04:53:19;4.25;;;2.85;;
50056;SDS011;36875;49.468;11.200;2023-04-21T04:55:44;3.90;;;2.67;;
50056;SDS011;36875;49.468;11.200;2023-04-21T04:58:11;4.15;;;2.70;;
50056;SDS011;36875;49.468;11.200;2023-04-21T05:00:36;5.15;;;2.70;;
50056;SDS011;36875;49.468;11.200;2023-04-21T05:03:02;5.00;;;2.92;;
50056;SDS011;36875;49.468;11.200;2023-04-21T05:05:29;4.03;;;2.72;;
50056;SDS011;36875;49.468;11.200;2023-04-21T05:07:55;3.85;;;2.70;;
50056;SDS011;36875;49.468;11.200;2023-04-21T05:10:21;4.55;;;3.33;;
50056;SDS011;36875;49.468;11.200;2023-04-21T05:12:47;4.53;;;3.00;;
50056;SDS011;36875;49.468;11.200;2023-04-21T05:15:12;5.53;;;3.35;;
50056;SDS011;36875;49.468;11.200;2023-04-21T05:17:38;3.83;;;2.75;;
50056;SDS011;36875;49.468;11.200;2023-04-21T05:20:04;4.10;;;2.72;;
50056;SDS011;36875;49.468;11.200;2023-04-21T05:22:35;3.83;;;2.80;;
50056;SDS011;36875;49.468;11.200;2023-04-21T05:25:01;4.85;;;3.30;;
50056;SDS011;36875;49.468;11.200;2023-04-21T05:27:26;4.38;;;2.95;;
50056;SDS011;36875;49.468;11.200;2023-04-21T05:29:52;5.85;;;3.10;;
50056;SDS011;36875;49.468;11.200;2023-04-21T05:32:19;5.53;;;3.20;;
50056;SDS011;36875;49.468;11.200;2023-04-21T05:34:44;5.55;;;3.17;;
50056;SDS011;36875;49.468;11.200;2023-04-21T05:37:10;6.15;;;3.53;;
50056;SDS011;36875;49.468;11.200;2023-04-21T05:39:37;7.35;;;2.90;;
50056;SDS011;36875;49.468;11.200;2023-04-21T05:42:03;6.88;;;3.25;;
50056;SDS011;36875;49.468;11.200;2023-04-21T05:44:28;8.07;;;3.58;;
50056;SDS011;36875;49.468;11.200;2023-04-21T05:46:54;10.65;;;3.67;;
50056;SDS011;36875;49.468;11.200;2023-04-21T05:49:19;6.95;;;3.53;;
50056;SDS011;36875;49.468;11.200;2023-04-21T05:51:45;10.00;;;3.90;;
50056;SDS011;36875;49.468;11.200;2023-04-21T05:54:11;10.00;;;3.42;;
50056;SDS011;36875;49.468;11.200;2023-04-21T05:56:38;9.98;;;4.07;;
50056;SDS011;36875;49.468;11.200;2023-04-21T05:59:03;16.20;;;4.45;;
50056;SDS011;36875;49.468;11.200;2023-04-21T06:01:30;8.82;;;4.00;;
50056;SDS011;36875;49.468;11.200;2023-04-21T06:03:56;13.88;;;4.30;;
50056;SDS011;36875;49.468;11.200;2023-04-21T06:06:21;17.38;;;5.13;;
50056;SDS011;36875;49.468;11.200;2023-04-21T06:08:47;16.90;;;5.63;;
50056;SDS011;36875;49.468;11.200;2023-04-21T06:11:12;16.25;;;4.95;;
50056;SDS011;36875;49.468;11.200;2023-04-21T06:13:39;83.20;;;52.83;;
50056;SDS011;36875;49.468;11.200;2023-04-21T06:16:05;43.78;;;29.58;;
50056;SDS011;36875;49.468;11.200;2023-04-21T06:18:30;29.63;;;17.77;;
50056;SDS011;36875;49.468;11.200;2023-04-21T06:20:56;24.73;;;14.02;;
50056;SDS011;36875;49.468;11.200;2023-04-21T06:23:21;21.77;;;11.95;;
50056;SDS011;36875;49.468;11.200;2023-04-21T06:25:47;20.33;;;11.43;;
50056;SDS011;36875;49.468;11.200;2023-04-21T06:28:23;15.93;;;10.50;;
50056;SDS011;36875;49.468;11.200;2023-04-21T06:30:50;16.83;;;10.18;;
50056;SDS011;36875;49.468;11.200;2023-04-21T06:33:15;16.02;;;9.93;;
50056;SDS011;36875;49.468;11.200;2023-04-21T06:35:41;15.65;;;10.25;;
50056;SDS011;36875;49.468;11.200;2023-04-21T06:38:07;14.07;;;8.00;;
50056;SDS011;36875;49.468;11.200;2023-04-21T06:40:32;13.20;;;7.07;;
50056;SDS011;36875;49.468;11.200;2023-04-21T06:42:58;10.80;;;6.93;;
50056;SDS011;36875;49.468;11.200;2023-04-21T06:45:23;12.10;;;7.13;;
50056;SDS011;36875;49.468;11.200;2023-04-21T06:47:50;14.75;;;6.03;;
50056;SDS011;36875;49.468;11.200;2023-04-21T06:50:16;10.98;;;6.55;;
50056;SDS011;36875;49.468;11.200;2023-04-21T06:52:41;9.52;;;5.70;;
50056;SDS011;36875;49.468;11.200;2023-04-21T06:55:07;10.65;;;6.05;;
50056;SDS011;36875;49.468;11.200;2023-04-21T06:57:33;9.07;;;5.65;;
50056;SDS011;36875;49.468;11.200;2023-04-21T06:59:58;9.77;;;5.95;;
50056;SDS011;36875;49.468;11.200;2023-04-21T07:02:24;8.95;;;5.50;;
50056;SDS011;36875;49.468;11.200;2023-04-21T07:04:51;10.38;;;5.15;;
50056;SDS011;36875;49.468;11.200;2023-04-21T07:07:16;9.93;;;5.47;;
50056;SDS011;36875;49.468;11.200;2023-04-21T07:09:42;8.40;;;5.10;;
50056;SDS011;36875;49.468;11.200;2023-04-21T07:12:11;8.25;;;5.40;;
50056;SDS011;36875;49.468;11.200;2023-04-21T07:14:36;8.48;;;5.50;;
50056;SDS011;36875;49.468;11.200;2023-04-21T07:17:02;7.43;;;4.97;;
50056;SDS011;36875;49.468;11.200;2023-04-21T07:19:30;10.30;;;4.70;;
50056;SDS011;36875;49.468;11.200;2023-04-21T07:21:57;8.50;;;4.95;;
50056;SDS011;36875;49.468;11.200;2023-04-21T07:24:23;7.97;;;4.95;;
50056;SDS011;36875;49.468;11.200;2023-04-21T07:26:48;7.68;;;4.65;;
50056;SDS011;36875;49.468;11.200;2023-04-21T07:29:14;7.82;;;4.78;;
50056;SDS011;36875;49.468;11.200;2023-04-21T07:31:40;7.78;;;5.00;;
50056;SDS011;36875;49.468;11.200;2023-04-21T07:34:05;7.55;;;4.28;;
50056;SDS011;36875;49.468;11.200;2023-04-21T07:36:31;6.85;;;4.65;;
50056;SDS011;36875;49.468;11.200;2023-04-21T07:38:57;7.95;;;4.90;;
50056;SDS011;36875;49.468;11.200;2023-04-21T07:41:23;10.25;;;5.32;;
50056;SDS011;36875;49.468;11.200;2023-04-21T07:43:48;8.52;;;5.53;;
50056;SDS011;36875;49.468;11.200;2023-04-21T07:46:14;10.02;;;5.22;;
50056;SDS011;36875;49.468;11.200;2023-04-21T07:48:40;13.00;;;5.45;;
50056;SDS011;36875;49.468;11.200;2023-04-21T07:51:05;8.77;;;5.05;;
50056;SDS011;36875;49.468;11.200;2023-04-21T07:53:31;7.80;;;5.22;;
50056;SDS011;36875;49.468;11.200;2023-04-21T07:55:58;10.00;;;5.85;;
50056;SDS011;36875;49.468;11.200;2023-04-21T07:58:23;8.25;;;5.25;;
50056;SDS011;36875;49.468;11.200;2023-04-21T08:00:49;7.28;;;5.00;;
50056;SDS011;36875;49.468;11.200;2023-04-21T08:03:14;8.07;;;4.85;;
50056;SDS011;36875;49.468;11.200;2023-04-21T08:05:40;8.35;;;5.38;;
50056;SDS011;36875;49.468;11.200;2023-04-21T08:08:05;9.27;;;5.15;;
50056;SDS011;36875;49.468;11.200;2023-04-21T08:10:31;10.13;;;5.60;;
50056;SDS011;36875;49.468;11.200;2023-04-21T08:12:58;8.52;;;5.03;;
50056;SDS011;36875;49.468;11.200;2023-04-21T08:15:24;8.18;;;4.80;;
50056;SDS011;36875;49.468;11.200;2023-04-21T08:17:49;8.68;;;5.00;;
50056;SDS011;36875;49.468;11.200;2023-04-21T08:20:15;9.50;;;4.53;;
50056;SDS011;36875;49.468;11.200;2023-04-21T08:22:41;6.80;;;4.05;;
50056;SDS011;36875;49.468;11.200;2023-04-21T08:25:07;9.70;;;4.88;;
50056;SDS011;36875;49.468;11.200;2023-04-21T08:27:32;6.82;;;4.57;;
50056;SDS011;36875;49.468;11.200;2023-04-21T08:30:02;9.48;;;4.70;;
50056;SDS011;36875;49.468;11.200;2023-04-21T08:32:29;10.00;;;4.65;;
50056;SDS011;36875;49.468;11.200;2023-04-21T08:34:54;6.93;;;4.28;;
50056;SDS011;36875;49.468;11.200;2023-04-21T08:37:20;7.80;;;4.47;;
50056;SDS011;36875;49.468;11.200;2023-04-21T08:39:46;7.10;;;4.47;;
50056;SDS011;36875;49.468;11.200;2023-04-21T08:42:12;8.63;;;4.65;;
50056;SDS011;36875;49.468;11.200;2023-04-21T08:44:38;9.52;;;4.80;;
50056;SDS011;36875;49.468;11.200;2023-04-21T08:47:06;7.35;;;4.85;;
50056;SDS011;36875;49.468;11.200;2023-04-21T08:49:34;8.82;;;4.47;;
50056;SDS011;36875;49.468;11.200;2023-04-21T08:52:03;8.25;;;4.22;;
50056;SDS011;36875;49.468;11.200;2023-04-21T08:54:28;6.75;;;4.45;;
50056;SDS011;36875;49.468;11.200;2023-04-21T08:56:55;8.45;;;4.57;;
50056;SDS011;36875;49.468;11.200;2023-04-21T08:59:20;8.45;;;4.22;;
50056;SDS011;36875;49.468;11.200;2023-04-21T09:02:05;8.50;;;3.83;;
50056;SDS011;36875;49.468;11.200;2023-04-21T09:04:33;7.00;;;4.00;;
50056;SDS011;36875;49.468;11.200;2023-04-21T09:06:59;7.18;;;3.80;;
50056;SDS011;36875;49.468;11.200;2023-04-21T09:09:24;7.00;;;3.90;;
50056;SDS011;36875;49.468;11.200;2023-04-21T09:11:53;7.85;;;3.90;;
50056;SDS011;36875;49.468;11.200;2023-04-21T09:14:19;7.60;;;4.03;;
50056;SDS011;36875;49.468;11.200;2023-04-21T09:16:45;9.75;;;4.00;;
50056;SDS011;36875;49.468;11.200;2023-04-21T09:19:24;8.73;;;3.90;;
50056;SDS011;36875;49.468;11.200;2023-04-21T09:21:50;7.22;;;3.63;;
50056;SDS011;36875;49.468;11.200;2023-04-21T09:24:16;13.05;;;7.85;;
50056;SDS011;36875;49.468;11.200;2023-04-21T09:26:42;8.18;;;5.70;;
50056;SDS011;36875;49.468;11.200;2023-04-21T09:29:07;9.63;;;5.30;;
50056;SDS011;36875;49.468;11.200;2023-04-21T09:31:33;8.80;;;4.97;;
50056;SDS011;36875;49.468;11.200;2023-04-21T09:33:59;7.45;;;4.97;;
50056;SDS011;36875;49.468;11.200;2023-04-21T09:36:41;7.68;;;4.30;;
50056;SDS011;36875;49.468;11.200;2023-04-21T09:39:08;8.93;;;4.40;;
50056;SDS011;36875;49.468;11.200;2023-04-21T09:41:34;7.82;;;4.45;;
50056;SDS011;36875;49.468;11.200;2023-04-21T09:43:59;7.95;;;4.70;;
50056;SDS011;36875;49.468;11.200;2023-04-21T09:46:25;9.45;;;4.82;;
50056;SDS011;36875;49.468;11.200;2023-04-21T09:48:54;6.22;;;4.28;;
50056;SDS011;36875;49.468;11.200;2023-04-21T09:51:20;8.50;;;4.18;;
50056;SDS011;36875;49.468;11.200;2023-04-21T09:53:50;7.22;;;4.30;;
50056;SDS011;36875;49.468;11.200;2023-04-21T09:56:18;7.05;;;4.20;;
50056;SDS011;36875;49.468;11.200;2023-04-21T09:58:50;6.90;;;4.00;;
50056;SDS011;36875;49.468;11.200;2023-04-21T10:01:17;6.25;;;3.90;;
50056;SDS011;36875;49.468;11.200;2023-04-21T10:03:44;6.78;;;3.65;;
50056;SDS011;36875;49.468;11.200;2023-04-21T10:06:12;8.45;;;3.90;;
50056;SDS011;36875;49.468;11.200;2023-04-21T10:08:38;6.45;;;3.72;;
50056;SDS011;36875;49.468;11.200;2023-04-21T10:11:06;6.80;;;3.55;;
50056;SDS011;36875;49.468;11.200;2023-04-21T10:13:32;9.65;;;3.88;;
50056;SDS011;36875;49.468;11.200;2023-04-21T10:16:01;7.50;;;3.90;;
50056;SDS011;36875;49.468;11.200;2023-04-21T10:18:29;4.90;;;3.45;;
50056;SDS011;36875;49.468;11.200;2023-04-21T10:20:55;6.88;;;4.15;;
50056;SDS011;36875;49.468;11.200;2023-04-21T10:23:32;8.73;;;3.85;;
50056;SDS011;36875;49.468;11.200;2023-04-21T10:26:02;7.82;;;3.75;;
50056;SDS011;36875;49.468;11.200;2023-04-21T10:28:39;5.10;;;3.17;;
50056;SDS011;36875;49.468;11.200;2023-04-21T10:31:18;5.50;;;3.58;;
50056;SDS011;36875;49.468;11.200;2023-04-21T10:37:12;7.95;;;3.80;;
50056;SDS011;36875;49.468;11.200;2023-04-21T10:39:43;6.40;;;3.55;;
50056;SDS011;36875;49.468;11.200;2023-04-21T10:42:24;4.20;;;3.10;;
50056;SDS011;36875;49.468;11.200;2023-04-21T10:44:52;6.97;;;3.78;;
50056;SDS011;36875;49.468;11.200;2023-04-21T10:47:26;5.32;;;3.25;;
50056;SDS011;36875;49.468;11.200;2023-04-21T10:49:52;5.78;;;3.47;;
50056;SDS011;36875;49.468;11.200;2023-04-21T10:52:20;6.00;;;3.22;;
50056;SDS011;36875;49.468;11.200;2023-04-21T10:57:32;5.30;;;3.00;;
50056;SDS011;36875;49.468;11.200;2023-04-21T10:59:59;6.88;;;3.30;;
50056;SDS011;36875;49.468;11.200;2023-04-21T11:02:25;6.20;;;3.22;;
50056;SDS011;36875;49.468;11.200;2023-04-21T11:04:51;5.97;;;3.15;;
50056;SDS011;36875;49.468;11.200;2023-04-21T11:07:17;5.68;;;3.10;;
50056;SDS011;36875;49.468;11.200;2023-04-21T11:09:44;6.78;;;3.10;;
50056;SDS011;36875;49.468;11.200;2023-04-21T11:12:11;5.35;;;3.20;;
50056;SDS011;36875;49.468;11.200;2023-04-21T11:14:40;6.25;;;3.33;;
50056;SDS011;36875;49.468;11.200;2023-04-21T11:17:10;5.95;;;3.10;;
50056;SDS011;36875;49.468;11.200;2023-04-21T11:19:36;6.68;;;3.10;;
50056;SDS011;36875;49.468;11.200;2023-04-21T11:22:02;4.78;;;3.03;;
50056;SDS011;36875;49.468;11.200;2023-04-21T11:24:28;7.47;;;3.10;;
50056;SDS011;36875;49.468;11.200;2023-04-21T11:26:53;4.90;;;3.05;;
50056;SDS011;36875;49.468;11.200;2023-04-21T11:29:19;4.57;;;2.97;;
50056;SDS011;36875;49.468;11.200;2023-04-21T11:31:46;4.85;;;2.85;;
50056;SDS011;36875;49.468;11.200;2023-04-21T11:34:14;4.80;;;2.75;;
50056;SDS011;36875;49.468;11.200;2023-04-21T11:36:41;7.05;;;3.20;;
50056;SDS011;36875;49.468;11.200;2023-04-21T11:39:08;6.43;;;2.90;;
50056;SDS011;36875;49.468;11.200;2023-04-21T11:41:35;4.95;;;2.95;;
50056;SDS011;36875;49.468;11.200;2023-04-21T11:44:03;9.02;;;3.00;;
50056;SDS011;36875;49.468;11.200;2023-04-21T11:46:29;6.50;;;3.08;;
50056;SDS011;36875;49.468;11.200;2023-04-21T11:49:01;5.13;;;3.17;;
50056;SDS011;36875;49.468;11.200;2023-04-21T11:51:32;6.60;;;2.92;;
50056;SDS011;36875;49.468;11.200;2023-04-21T11:53:58;6.33;;;2.73;;
50056;SDS011;36875;49.468;11.200;2023-04-21T11:56:24;6.65;;;3.10;;
50056;SDS011;36875;49.468;11.200;2023-04-21T11:58:50;6.00;;;2.90;;
50056;SDS011;36875;49.468;11.200;2023-04-21T12:01:16;6.57;;;3.45;;
50056;SDS011;36875;49.468;11.200;2023-04-21T12:03:49;4.20;;;2.72;;
50056;SDS011;36875;49.468;11.200;2023-04-21T12:06:20;7.50;;;2.83;;
50056;SDS011;36875;49.468;11.200;2023-04-21T12:08:46;5.80;;;2.72;;
50056;SDS011;36875;49.468;11.200;2023-04-21T12:11:14;5.10;;;2.65;;
50056;SDS011;36875;49.468;11.200;2023-04-21T12:13:40;7.68;;;2.80;;
50056;SDS011;36875;49.468;11.200;2023-04-21T12:16:06;9.05;;;2.90;;
50056;SDS011;36875;49.468;11.200;2023-04-21T12:18:31;7.78;;;2.92;;
50056;SDS011;36875;49.468;11.200;2023-04-21T12:20:59;5.10;;;2.90;;
50056;SDS011;36875;49.468;11.200;2023-04-21T12:23:27;8.18;;;2.92;;
50056;SDS011;36875;49.468;11.200;2023-04-21T12:25:53;5.10;;;2.95;;
50056;SDS011;36875;49.468;11.200;2023-04-21T12:28:19;7.25;;;2.97;;
50056;SDS011;36875;49.468;11.200;2023-04-21T12:30:45;5.10;;;2.53;;
50056;SDS011;36875;49.468;11.200;2023-04-21T12:33:10;5.30;;;2.40;;
50056;SDS011;36875;49.468;11.200;2023-04-21T12:35:36;3.95;;;2.47;;
50056;SDS011;36875;49.468;11.200;2023-04-21T12:38:03;5.22;;;2.70;;
50056;SDS011;36875;49.468;11.200;2023-04-21T12:40:30;7.05;;;2.70;;
50056;SDS011;36875;49.468;11.200;2023-04-21T12:42:55;3.58;;;2.28;;
50056;SDS011;36875;49.468;11.200;2023-04-21T12:45:21;5.00;;;2.75;;
50056;SDS011;36875;49.468;11.200;2023-04-21T12:47:46;8.55;;;2.78;;
50056;SDS011;36875;49.468;11.200;2023-04-21T12:50:12;5.72;;;2.40;;
50056;SDS011;36875;49.468;11.200;2023-04-21T12:52:38;4.30;;;2.50;;
50056;SDS011;36875;49.468;11.200;2023-04-21T12:55:04;6.47;;;2.50;;
50056;SDS011;36875;49.468;11.200;2023-04-21T12:57:31;4.93;;;2.50;;
50056;SDS011;36875;49.468;11.200;2023-04-21T12:59:57;3.53;;;2.30;;
50056;SDS011;36875;49.468;11.200;2023-04-21T13:02:22;4.25;;;2.47;;
50056;SDS011;36875;49.468;11.200;2023-04-21T13:04:48;4.72;;;2.65;;
50056;SDS011;36875;49.468;11.200;2023-04-21T13:07:13;3.88;;;2.50;;
50056;SDS011;36875;49.468;11.200;2023-04-21T13:09:40;3.55;;;2.35;;
50056;SDS011;36875;49.468;11.200;2023-04-21T13:12:05;4.32;;;2.30;;
50056;SDS011;36875;49.468;11.200;2023-04-21T13:14:33;3.30;;;2.20;;
50056;SDS011;36875;49.468;11.200;2023-04-21T13:16:58;5.03;;;2.28;;
50056;SDS011;36875;49.468;11.200;2023-04-21T13:19:24;3.55;;;2.40;;
50056;SDS011;36875;49.468;11.200;2023-04-21T13:21:50;4.57;;;2.22;;
50056;SDS011;36875;49.468;11.200;2023-04-21T13:24:15;3.85;;;2.13;;
50056;SDS011;36875;49.468;11.200;2023-04-21T13:26:41;5.45;;;2.58;;
50056;SDS011;36875;49.468;11.200;2023-04-21T13:29:06;3.35;;;2.20;;
50056;SDS011;36875;49.468;11.200;2023-04-21T13:31:34;4.45;;;2.50;;
50056;SDS011;36875;49.468;11.200;2023-04-21T13:34:00;3.60;;;2.25;;
50056;SDS011;36875;49.468;11.200;2023-04-21T13:36:25;2.95;;;2.05;;
50056;SDS011;36875;49.468;11.200;2023-04-21T13:38:51;3.55;;;2.35;;
50056;SDS011;36875;49.468;11.200;2023-04-21T13:41:18;3.78;;;2.10;;
50056;SDS011;36875;49.468;11.200;2023-04-21T13:43:43;3.70;;;2.25;;
50056;SDS011;36875;49.468;11.200;2023-04-21T13:46:09;2.85;;;2.05;;
50056;SDS011;36875;49.468;11.200;2023-04-21T13:48:38;4.75;;;2.35;;
50056;SDS011;36875;49.468;11.200;2023-04-21T13:51:03;5.20;;;2.10;;
50056;SDS011;36875;49.468;11.200;2023-04-21T13:53:29;3.65;;;2.20;;
50056;SDS011;36875;49.468;11.200;2023-04-21T13:55:55;5.22;;;2.22;;
50056;SDS011;36875;49.468;11.200;2023-04-21T13:58:21;5.10;;;2.20;;
50056;SDS011;36875;49.468;11.200;2023-04-21T14:00:47;4.82;;;2.30;;
50056;SDS011;36875;49.468;11.200;2023-04-21T14:03:12;8.80;;;2.67;;
50056;SDS011;36875;49.468;11.200;2023-04-21T14:05:39;5.07;;;2.83;;
50056;SDS011;36875;49.468;11.200;2023-04-21T14:08:05;12.07;;;2.42;;
50056;SDS011;36875;49.468;11.200;2023-04-21T14:10:30;6.20;;;2.70;;
50056;SDS011;36875;49.468;11.200;2023-04-21T14:12:56;6.88;;;3.17;;
50056;SDS011;36875;49.468;11.200;2023-04-21T14:15:21;8.13;;;2.72;;
50056;SDS011;36875;49.468;11.200;2023-04-21T14:17:47;9.35;;;2.80;;
50056;SDS011;36875;49.468;11.200;2023-04-21T14:20:12;10.82;;;2.55;;
50056;SDS011;36875;49.468;11.200;2023-04-21T14:22:39;6.30;;;2.63;;
50056;SDS011;36875;49.468;11.200;2023-04-21T14:25:05;9.57;;;2.83;;
50056;SDS011;36875;49.468;11.200;2023-04-21T14:27:32;7.07;;;2.60;;
50056;SDS011;36875;49.468;11.200;2023-04-21T14:29:57;8.93;;;2.97;;
50056;SDS011;36875;49.468;11.200;2023-04-21T14:32:24;6.25;;;2.65;;
50056;SDS011;36875;49.468;11.200;2023-04-21T14:34:49;8.80;;;2.80;;